Time;durP1;ratioP1;P1;durP2;ratioP2;P2;SDS_P1;SDS_P2;PMS_P1;PMS_P2;Temp;Humidity;BMP_temperature;BMP_pressure;BME280_temperature;BME280_humidity;BME280_pressure;Samples;Min_cycle;Max_cycle;Signal;HPM_P1;HPM_P2
2023/09/02 00:00:59;;;;;;;0.60;0.60;;;15.80;99.90;;;;;;4981433;28;20105;-86
2023/09/02 00:03:24;;;;;;;0.60;0.60;;;15.80;99.90;;;;;;4981085;28;20076;-86
2023/09/02 00:05:50;;;;;;;0.60;0.60;;;15.80;99.90;;;;;;4997673;28;20058;-86
2023/09/02 00:08:16;;;;;;;0.60;0.60;;;16.20;99.90;;;;;;4985244;28;20208;-86
2023/09/02 00:10:41;;;;;;;0.70;0.70;;;15.90;99.90;;;;;;4996307;28;20038;-86
2023/09/02 00:13:07;;;;;;;0.60;0.60;;;16.20;99.90;;;;;;5000498;28;20663;-86
2023/09/02 00:15:32;;;;;;;0.60;0.60;;;15.70;99.90;;;;;;4998826;28;20582;-86
2023/09/02 00:17:58;;;;;;;0.60;0.60;;;15.90;99.90;;;;;;4996967;28;20108;-86
2023/09/02 00:20:24;;;;;;;0.60;0.60;;;15.80;99.90;;;;;;4983049;28;20081;-87
2023/09/02 00:22:50;;;;;;;0.60;0.60;;;15.70;99.90;;;;;;4981489;28;20046;-87
2023/09/02 00:25:15;;;;;;;0.60;0.60;;;16.10;99.90;;;;;;4982798;28;20042;-87
2023/09/02 00:27:41;;;;;;;0.70;0.70;;;15.90;99.90;;;;;;4982511;28;20742;-87
2023/09/02 00:30:07;;;;;;;0.60;0.60;;;15.70;99.90;;;;;;4980812;28;20056;-87
2023/09/02 00:32:33;;;;;;;0.60;0.60;;;15.90;99.90;;;;;;5000698;28;20645;-87
2023/09/02 00:34:59;;;;;;;0.60;0.60;;;16.10;99.90;;;;;;4998176;28;20129;-87
2023/09/02 00:37:25;;;;;;;0.60;0.60;;;15.80;99.90;;;;;;4999635;28;20046;-87
2023/09/02 00:39:50;;;;;;;0.60;0.60;;;15.90;99.90;;;;;;4999864;28;20057;-87
2023/09/02 00:42:19;;;;;;;0.60;0.60;;;16.10;99.90;;;;;;4978704;28;20720;-88
2023/09/02 00:44:46;;;;;;;0.63;0.63;;;16.40;99.90;;;;;;4986567;28;20140;-87
2023/09/02 00:47:12;;;;;;;0.70;0.70;;;15.90;99.90;;;;;;4983616;28;20053;-87
2023/09/02 00:49:38;;;;;;;0.60;0.60;;;16.10;99.90;;;;;;4983704;28;20046;-86
2023/09/02 00:52:04;;;;;;;0.70;0.70;;;15.70;99.90;;;;;;4999149;28;20123;-87
2023/09/02 00:54:33;;;;;;;0.65;0.65;;;15.70;99.90;;;;;;4998122;28;20524;-86
2023/09/02 00:57:00;;;;;;;0.60;0.60;;;16.00;99.90;;;;;;4997497;28;20089;-86
2023/09/02 00:59:26;;;;;;;0.60;0.60;;;16.20;99.90;;;;;;4987027;28;20046;-87
2023/09/02 01:01:55;;;;;;;0.68;0.68;;;15.70;99.90;;;;;;4999446;28;20042;-86
2023/09/02 01:04:21;;;;;;;0.70;0.70;;;15.70;99.90;;;;;;4988949;28;20046;-86
2023/09/02 01:06:47;;;;;;;0.65;0.65;;;16.10;99.90;;;;;;4987511;28;20049;-87
2023/09/02 01:09:13;;;;;;;0.70;0.70;;;16.00;99.90;;;;;;4988480;28;20042;-86
2023/09/02 01:11:39;;;;;;;0.70;0.70;;;15.80;99.90;;;;;;4999375;28;20075;-86
2023/09/02 01:14:05;;;;;;;0.70;0.70;;;16.20;99.90;;;;;;4997376;28;20482;-87
2023/09/02 01:16:31;;;;;;;0.70;0.70;;;15.90;99.90;;;;;;4986369;28;20551;-87
2023/09/02 01:18:58;;;;;;;0.70;0.70;;;15.90;99.90;;;;;;4983859;28;20423;-86
2023/09/02 01:21:32;;;;;;;0.75;0.75;;;16.00;99.90;;;;;;5002646;28;20560;-86
2023/09/02 01:24:48;;;;;;;0.70;0.70;;;16.20;99.90;;;;;;5004450;28;20411;-86
2023/09/02 01:27:22;;;;;;;0.70;0.70;;;16.20;99.90;;;;;;4983457;28;20419;-87
2023/09/02 01:30:05;;;;;;;0.70;0.70;;;16.00;99.90;;;;;;4983558;28;20145;-86
2023/09/02 01:32:42;;;;;;;0.73;0.73;;;16.30;99.90;;;;;;4984532;28;20088;-86
2023/09/02 01:35:09;;;;;;;0.73;0.73;;;16.00;99.90;;;;;;5004813;28;20470;-87
2023/09/02 01:37:44;;;;;;;0.80;0.80;;;16.00;99.90;;;;;;4987560;28;20495;-87
2023/09/02 01:40:22;;;;;;;0.70;0.70;;;15.80;99.90;;;;;;4986359;28;20084;-86
2023/09/02 01:42:51;;;;;;;0.70;0.70;;;16.40;99.90;;;;;;4987974;28;20046;-86
2023/09/02 01:45:19;;;;;;;0.70;0.70;;;15.70;99.90;;;;;;4982810;28;20065;-86
2023/09/02 01:47:46;;;;;;;0.70;0.70;;;15.70;99.90;;;;;;4986827;28;20058;-88
2023/09/02 01:50:15;;;;;;;0.73;0.73;;;15.70;99.90;;;;;;5001136;28;20054;-86
2023/09/02 01:52:42;;;;;;;0.75;0.75;;;16.50;99.90;;;;;;5001287;28;20046;-87
2023/09/02 01:55:09;;;;;;;0.70;0.70;;;15.90;99.90;;;;;;5001859;28;20045;-88
2023/09/02 01:57:35;;;;;;;0.70;0.70;;;15.80;99.90;;;;;;5000828;28;20046;-87
2023/09/02 02:00:00;;;;;;;0.70;0.70;;;16.40;99.90;;;;;;5001757;28;20045;-87
2023/09/02 02:02:26;;;;;;;0.73;0.73;;;16.50;99.90;;;;;;4986960;28;20103;-87
2023/09/02 02:04:55;;;;;;;0.70;0.70;;;16.20;99.90;;;;;;5002613;28;20042;-86
2023/09/02 02:07:28;;;;;;;0.73;0.73;;;16.50;99.90;;;;;;4985040;28;20072;-86
2023/09/02 02:09:59;;;;;;;0.73;0.73;;;15.80;99.90;;;;;;4985589;28;20038;-87
2023/09/02 02:12:26;;;;;;;0.70;0.70;;;15.70;99.90;;;;;;4986190;28;20492;-86
2023/09/02 02:14:51;;;;;;;0.70;0.70;;;15.80;99.90;;;;;;4983943;28;20049;-87
2023/09/02 02:17:17;;;;;;;0.73;0.73;;;16.20;99.90;;;;;;4985932;28;20104;-87
2023/09/02 02:19:44;;;;;;;0.70;0.70;;;16.10;99.90;;;;;;5000750;28;20137;-86
2023/09/02 02:22:10;;;;;;;0.73;0.73;;;15.80;99.90;;;;;;5002905;28;20045;-87
2023/09/02 02:24:36;;;;;;;0.77;0.77;;;16.50;99.90;;;;;;4985831;28;20542;-88
2023/09/02 02:27:02;;;;;;;0.80;0.80;;;16.40;99.90;;;;;;5003216;28;20049;-87
2023/09/02 02:29:28;;;;;;;0.77;0.77;;;16.50;99.90;;;;;;4985048;28;20834;-86
2023/09/02 02:31:54;;;;;;;0.70;0.70;;;16.10;99.90;;;;;;5001027;28;20048;-86
2023/09/02 02:34:19;;;;;;;0.77;0.77;;;16.30;99.90;;;;;;5000547;28;20058;-87
2023/09/02 02:36:45;;;;;;;0.80;0.80;;;16.50;99.90;;;;;;5002129;28;20096;-87
2023/09/02 02:39:11;;;;;;;0.80;0.80;;;16.20;99.90;;;;;;5001285;28;20042;-87
2023/09/02 02:41:36;;;;;;;0.80;0.80;;;16.00;99.90;;;;;;5005579;28;20049;-87
2023/09/02 02:44:03;;;;;;;0.80;0.80;;;16.50;99.90;;;;;;5003722;28;20411;-87
2023/09/02 02:46:28;;;;;;;0.73;0.73;;;16.50;99.90;;;;;;5001855;28;20060;-86
2023/09/02 02:48:54;;;;;;;0.77;0.77;;;16.10;99.90;;;;;;5006116;28;20049;-88
2023/09/02 02:51:20;;;;;;;0.77;0.77;;;16.50;99.90;;;;;;5006729;28;20069;-87
2023/09/02 02:53:45;;;;;;;0.82;0.82;;;16.60;99.90;;;;;;5008417;28;20076;-87
2023/09/02 02:56:11;;;;;;;0.82;0.82;;;16.60;99.90;;;;;;5003872;28;20080;-87
2023/09/02 02:58:37;;;;;;;0.80;0.80;;;16.60;99.90;;;;;;4990381;28;20620;-87
2023/09/02 03:01:08;;;;;;;0.85;0.85;;;16.10;99.90;;;;;;4988210;28;20156;-87
2023/09/02 03:03:35;;;;;;;0.85;0.85;;;16.10;99.90;;;;;;4989339;28;20053;-88
2023/09/02 03:06:03;;;;;;;0.82;0.82;;;16.00;99.90;;;;;;5002497;28;20089;-88
2023/09/02 03:08:29;;;;;;;0.82;0.82;;;16.00;99.90;;;;;;4989974;28;20046;-87
2023/09/02 03:10:59;;;;;;;0.88;0.88;;;16.10;99.90;;;;;;5003747;28;20492;-87
2023/09/02 03:13:25;;;;;;;0.88;0.88;;;16.20;99.90;;;;;;4993171;28;20138;-86
2023/09/02 03:15:53;;;;;;;0.93;0.93;;;16.60;99.90;;;;;;5004880;28;20049;-87
2023/09/02 03:18:19;;;;;;;0.93;0.93;;;16.40;99.90;;;;;;5004961;28;20042;-87
2023/09/02 03:20:45;;;;;;;0.90;0.90;;;16.10;99.90;;;;;;5006296;28;20050;-87
2023/09/02 03:23:11;;;;;;;0.88;0.88;;;16.10;99.90;;;;;;5004122;28;20049;-86
2023/09/02 03:25:37;;;;;;;0.95;0.95;;;16.70;99.90;;;;;;5005667;28;20111;-88
2023/09/02 03:28:04;;;;;;;0.90;0.90;;;16.60;99.90;;;;;;5003929;28;20050;-87
2023/09/02 03:30:30;;;;;;;0.90;0.90;;;16.10;99.90;;;;;;5003843;28;20054;-87
2023/09/02 03:32:56;;;;;;;0.93;0.93;;;16.40;99.90;;;;;;4987402;28;20501;-86
2023/09/02 03:35:21;;;;;;;0.90;0.90;;;16.40;99.90;;;;;;5004339;28;20115;-88
2023/09/02 03:37:47;;;;;;;0.93;0.93;;;16.30;99.90;;;;;;5001918;28;20114;-87
2023/09/02 03:40:13;;;;;;;0.90;0.90;;;16.10;99.90;;;;;;4987061;28;20177;-87
2023/09/02 03:42:38;;;;;;;0.98;0.98;;;16.30;99.90;;;;;;5007412;28;20041;-88
2023/09/02 03:45:13;;;;;;;0.95;0.95;;;16.30;99.90;;;;;;5005327;28;20050;-87
2023/09/02 03:47:39;;;;;;;1.00;1.00;;;16.10;99.90;;;;;;5003884;28;20054;-86
2023/09/02 03:50:06;;;;;;;0.98;0.98;;;16.40;99.90;;;;;;5004898;28;20091;-87
2023/09/02 03:52:31;;;;;;;0.95;0.95;;;16.30;99.90;;;;;;4992460;28;20311;-87
2023/09/02 03:54:58;;;;;;;0.90;0.90;;;16.00;99.90;;;;;;5006247;28;20080;-87
2023/09/02 03:57:24;;;;;;;0.90;0.90;;;15.90;99.90;;;;;;5005799;28;20045;-87
2023/09/02 03:59:50;;;;;;;0.85;0.85;;;16.00;99.90;;;;;;5005027;28;20053;-87
2023/09/02 04:02:15;;;;;;;0.80;0.80;;;16.00;99.90;;;;;;4989000;28;21710;-87
2023/09/02 04:04:41;;;;;;;1.20;1.20;;;16.40;99.90;;;;;;5005363;28;20705;-87
2023/09/02 04:07:07;;;;;;;0.80;0.80;;;16.50;99.90;;;;;;4991046;28;20767;-87
2023/09/02 04:09:35;;;;;;;0.77;0.77;;;16.50;99.90;;;;;;5018353;28;20084;-86
2023/09/02 04:12:02;;;;;;;0.75;0.75;;;16.10;99.90;;;;;;5004814;28;20508;-87
2023/09/02 04:14:28;;;;;;;0.80;0.80;;;16.10;99.90;;;;;;4991914;28;20050;-88
2023/09/02 04:16:54;;;;;;;0.75;0.75;;;16.00;99.90;;;;;;4988581;28;20096;-87
2023/09/02 04:19:20;;;;;;;0.75;0.75;;;16.30;99.90;;;;;;5007403;28;20132;-87
2023/09/02 04:21:46;;;;;;;0.70;0.70;;;16.60;99.90;;;;;;4987913;28;20480;-87
2023/09/02 04:24:12;;;;;;;0.70;0.70;;;16.60;99.90;;;;;;5004928;28;20046;-87
2023/09/02 04:26:38;;;;;;;0.70;0.70;;;16.00;99.90;;;;;;5005210;28;20380;-87
2023/09/02 04:29:04;;;;;;;0.70;0.70;;;16.00;99.90;;;;;;4988361;28;20141;-87
2023/09/02 04:31:29;;;;;;;0.70;0.70;;;16.30;99.90;;;;;;4990131;28;20041;-87
2023/09/02 04:33:56;;;;;;;0.65;0.65;;;16.60;99.90;;;;;;4988092;28;20049;-87
2023/09/02 04:36:23;;;;;;;0.70;0.70;;;16.00;99.90;;;;;;5005811;28;20046;-88
2023/09/02 04:38:48;;;;;;;0.70;0.70;;;16.60;99.90;;;;;;4988105;28;20092;-87
2023/09/02 04:41:16;;;;;;;0.60;0.60;;;16.10;99.90;;;;;;4987721;28;20089;-87
2023/09/02 04:43:42;;;;;;;0.63;0.63;;;16.00;99.90;;;;;;5004113;28;20052;-86
2023/09/02 04:46:07;;;;;;;0.63;0.63;;;16.60;99.90;;;;;;5003924;28;20132;-86
2023/09/02 04:48:33;;;;;;;0.60;0.60;;;16.60;99.90;;;;;;4987655;28;20132;-88
2023/09/02 04:50:59;;;;;;;0.60;0.60;;;16.60;99.90;;;;;;4987002;28;20077;-86
2023/09/02 04:53:25;;;;;;;0.60;0.60;;;16.30;99.90;;;;;;4987286;28;20049;-86
2023/09/02 04:55:51;;;;;;;0.77;0.77;;;16.50;99.90;;;;;;5003914;28;20107;-87
2023/09/02 04:58:20;;;;;;;0.60;0.60;;;15.90;99.90;;;;;;5003942;28;20455;-86
2023/09/02 05:00:45;;;;;;;0.60;0.60;;;15.90;99.90;;;;;;5004695;28;20115;-87
2023/09/02 05:03:11;;;;;;;0.60;0.60;;;16.50;99.90;;;;;;4987067;28;20041;-87
2023/09/02 05:05:37;;;;;;;0.60;0.60;;;16.30;99.90;;;;;;5002717;28;20535;-87
2023/09/02 05:08:03;;;;;;;0.60;0.60;;;16.70;99.90;;;;;;4988119;28;20046;-87
2023/09/02 05:10:29;;;;;;;0.60;0.60;;;16.40;99.90;;;;;;5003113;28;20054;-87
2023/09/02 05:12:55;;;;;;;0.60;0.60;;;16.20;99.90;;;;;;5004742;28;20100;-86
2023/09/02 05:15:20;;;;;;;0.60;0.60;;;16.00;99.90;;;;;;5004330;28;21512;-87
2023/09/02 05:17:46;;;;;;;0.60;0.60;;;16.00;99.90;;;;;;4988820;28;20066;-86
2023/09/02 05:20:12;;;;;;;0.60;0.60;;;16.30;99.90;;;;;;5003806;28;20049;-87
2023/09/02 05:22:38;;;;;;;0.60;0.60;;;16.50;99.90;;;;;;5003239;28;20080;-87
2023/09/02 05:25:04;;;;;;;0.60;0.60;;;16.50;99.90;;;;;;5005512;28;20045;-86
2023/09/02 05:27:30;;;;;;;0.60;0.60;;;16.10;99.90;;;;;;5004591;28;20471;-86
2023/09/02 05:29:56;;;;;;;0.60;0.60;;;15.90;99.90;;;;;;5000190;28;20052;-87
2023/09/02 05:32:22;;;;;;;0.50;0.50;;;16.30;99.90;;;;;;4983741;28;20046;-87
2023/09/02 05:34:47;;;;;;;0.60;0.60;;;16.10;99.90;;;;;;4985019;28;20088;-87
2023/09/02 05:37:13;;;;;;;0.50;0.50;;;16.50;99.90;;;;;;4986149;28;20148;-86
2023/09/02 05:39:39;;;;;;;0.60;0.60;;;16.50;99.90;;;;;;5004382;28;20045;-87
2023/09/02 05:42:05;;;;;;;0.50;0.50;;;16.20;99.90;;;;;;4986147;28;20042;-88
2023/09/02 05:44:34;;;;;;;0.60;0.60;;;16.70;99.90;;;;;;4986061;28;20041;-87
2023/09/02 05:47:00;;;;;;;0.50;0.50;;;16.40;99.90;;;;;;5003067;28;20652;-87
2023/09/02 05:49:25;;;;;;;0.60;0.60;;;16.50;99.90;;;;;;5003059;28;20052;-87
2023/09/02 05:51:51;;;;;;;0.60;0.60;;;16.60;99.90;;;;;;4988261;28;20053;-87
2023/09/02 05:54:17;;;;;;;0.52;0.52;;;16.00;99.90;;;;;;5002989;28;20049;-87
2023/09/02 05:56:42;;;;;;;0.50;0.50;;;16.40;99.90;;;;;;5018787;28;20045;-87
2023/09/02 05:59:08;;;;;;;0.50;0.50;;;16.70;99.90;;;;;;4984212;28;20139;-87
2023/09/02 06:01:40;;;;;;;0.50;0.50;;;16.70;99.90;;;;;;5001548;28;20060;-87
2023/09/02 06:04:06;;;;;;;0.60;0.60;;;16.60;99.90;;;;;;5001268;28;20125;-86
2023/09/02 06:06:31;;;;;;;0.60;0.60;;;16.30;99.90;;;;;;4985570;28;20176;-87
2023/09/02 06:08:57;;;;;;;0.60;0.60;;;16.30;99.90;;;;;;5000160;28;20096;-87
2023/09/02 06:11:23;;;;;;;0.60;0.60;;;16.30;99.90;;;;;;5005237;28;20132;-92
2023/09/02 06:13:48;;;;;;;0.50;0.50;;;16.30;99.90;;;;;;4987277;28;20046;-87
2023/09/02 06:16:14;;;;;;;0.50;0.50;;;16.40;99.90;;;;;;5003092;28;20034;-85
2023/09/02 06:18:40;;;;;;;0.60;0.60;;;16.70;99.90;;;;;;5003496;28;20184;-85
2023/09/02 06:21:13;;;;;;;0.50;0.50;;;16.60;99.90;;;;;;5004125;28;20120;-87
2023/09/02 06:23:43;;;;;;;0.60;0.60;;;16.50;99.90;;;;;;5004125;28;20058;-87
2023/09/02 06:26:09;;;;;;;0.50;0.50;;;16.30;99.90;;;;;;5005542;28;20383;-86
2023/09/02 06:28:35;;;;;;;0.60;0.60;;;16.40;99.90;;;;;;5002143;28;20041;-86
2023/09/02 06:31:06;;;;;;;0.60;0.60;;;16.50;99.90;;;;;;5000954;28;20119;-88
2023/09/02 06:33:31;;;;;;;0.60;0.60;;;16.30;99.90;;;;;;4987475;28;20041;-87
2023/09/02 06:35:57;;;;;;;0.60;0.60;;;16.50;99.90;;;;;;5001971;28;20050;-86
2023/09/02 06:38:23;;;;;;;0.55;0.55;;;16.60;99.90;;;;;;5000094;28;20050;-86
2023/09/02 06:40:49;;;;;;;0.60;0.60;;;16.50;99.90;;;;;;5005312;28;20099;-87
2023/09/02 06:43:14;;;;;;;0.52;0.52;;;16.70;99.90;;;;;;5000740;28;20050;-86
2023/09/02 06:45:40;;;;;;;0.50;0.50;;;16.40;99.90;;;;;;5002186;28;20137;-87
2023/09/02 06:48:06;;;;;;;0.50;0.50;;;16.60;99.90;;;;;;5002623;28;20054;-87
2023/09/02 06:50:31;;;;;;;0.50;0.50;;;16.90;99.90;;;;;;5002563;28;20045;-86
2023/09/02 06:52:57;;;;;;;0.50;0.50;;;16.70;99.90;;;;;;4988825;28;20411;-87
2023/09/02 06:55:23;;;;;;;0.50;0.50;;;16.70;99.90;;;;;;4989489;28;20125;-87
2023/09/02 06:57:49;;;;;;;0.52;0.52;;;16.80;99.90;;;;;;5003659;28;21677;-89
2023/09/02 07:00:15;;;;;;;0.85;0.85;;;16.90;99.90;;;;;;4986408;28;20046;-87
2023/09/02 07:02:42;;;;;;;0.65;0.65;;;16.60;99.90;;;;;;5003589;28;20053;-88
2023/09/02 07:05:08;;;;;;;0.60;0.60;;;16.80;99.90;;;;;;4986477;28;20408;-86
2023/09/02 07:07:36;;;;;;;0.70;0.70;;;17.10;99.90;;;;;;5001279;28;20053;-88
2023/09/02 07:10:05;;;;;;;0.60;0.60;;;17.00;99.90;;;;;;5002754;28;20426;-86
2023/09/02 07:12:31;;;;;;;0.60;0.60;;;16.70;99.90;;;;;;5001013;28;20046;-86
2023/09/02 07:14:56;;;;;;;0.60;0.60;;;16.60;99.90;;;;;;5002406;28;20085;-87
2023/09/02 07:17:22;;;;;;;0.60;0.60;;;16.60;99.90;;;;;;5004267;28;20084;-87
2023/09/02 07:19:48;;;;;;;0.60;0.60;;;16.70;99.90;;;;;;5004327;28;20149;-88
2023/09/02 07:22:13;;;;;;;0.60;0.60;;;16.60;99.90;;;;;;4984520;28;20399;-88
2023/09/02 07:24:39;;;;;;;0.65;0.65;;;16.80;99.90;;;;;;5005976;28;20509;-88
2023/09/02 07:27:05;;;;;;;0.60;0.60;;;16.80;99.90;;;;;;4985959;28;20049;-88
2023/09/02 07:29:30;;;;;;;0.60;0.60;;;17.10;99.90;;;;;;5007092;28;20051;-87
2023/09/02 07:31:56;;;;;;;0.60;0.60;;;16.90;99.90;;;;;;4990594;28;20065;-88
2023/09/02 07:34:22;;;;;;;0.60;0.60;;;16.80;99.90;;;;;;5008739;28;20049;-88
2023/09/02 07:36:47;;;;;;;0.60;0.60;;;17.00;99.90;;;;;;4991973;28;20050;-88
2023/09/02 07:39:16;;;;;;;0.60;0.60;;;16.70;99.90;;;;;;5005242;28;20073;-87
2023/09/02 07:41:41;;;;;;;0.60;0.60;;;16.80;99.90;;;;;;4989922;28;20038;-89
2023/09/02 07:44:09;;;;;;;0.52;0.52;;;17.00;99.90;;;;;;5009303;28;20129;-90
2023/09/02 07:46:34;;;;;;;0.60;0.60;;;16.90;99.90;;;;;;5006588;28;20160;-87
2023/09/02 07:49:00;;;;;;;0.60;0.60;;;17.20;99.90;;;;;;4992734;28;20722;-90
2023/09/02 07:51:26;;;;;;;0.57;0.57;;;17.30;99.90;;;;;;4993560;28;20046;-91
2023/09/02 07:53:51;;;;;;;0.60;0.60;;;17.10;99.90;;;;;;4994662;28;20065;-89
2023/09/02 07:56:20;;;;;;;0.52;0.52;;;17.30;99.90;;;;;;4991878;28;20100;-90
2023/09/02 07:58:48;;;;;;;0.57;0.57;;;17.40;99.90;;;;;;4991504;28;20050;-91
2023/09/02 08:01:14;;;;;;;0.52;0.52;;;17.10;99.90;;;;;;5008813;28;20447;-91
2023/09/02 08:03:40;;;;;;;0.60;0.60;;;17.20;99.90;;;;;;4986664;28;20046;-94
2023/09/02 08:06:06;;;;;;;0.60;0.60;;;17.30;99.90;;;;;;4988810;28;20052;-89
2023/09/02 08:08:32;;;;;;;0.60;0.60;;;17.40;99.90;;;;;;4997647;28;20046;-86
2023/09/02 08:11:05;;;;;;;0.60;0.60;;;17.20;99.90;;;;;;5003299;28;20633;-89
2023/09/02 08:13:32;;;;;;;0.50;0.50;;;17.30;99.90;;;;;;4990957;28;20054;-88
2023/09/02 08:15:58;;;;;;;0.60;0.60;;;17.30;99.90;;;;;;5006322;28;20215;-87
2023/09/02 08:18:24;;;;;;;0.60;0.60;;;17.10;99.90;;;;;;5006006;28;20511;-86
2023/09/02 08:20:49;;;;;;;0.60;0.60;;;17.10;99.90;;;;;;5005829;28;20057;-89
2023/09/02 08:23:15;;;;;;;0.60;0.60;;;17.30;99.90;;;;;;5007451;28;20175;-88
2023/09/02 08:25:41;;;;;;;0.60;0.60;;;17.40;99.90;;;;;;5003126;28;20488;-87
2023/09/02 08:28:06;;;;;;;0.60;0.60;;;17.50;99.90;;;;;;5005789;28;20046;-87
2023/09/02 08:30:32;;;;;;;0.60;0.60;;;17.20;99.90;;;;;;5002684;28;20054;-88
2023/09/02 08:32:58;;;;;;;0.52;0.52;;;17.10;99.90;;;;;;5006427;28;20058;-88
2023/09/02 08:35:23;;;;;;;0.60;0.60;;;17.10;99.90;;;;;;5003767;28;20758;-86
2023/09/02 08:37:51;;;;;;;0.60;0.60;;;17.10;99.90;;;;;;5005074;28;20056;-89
2023/09/02 08:40:17;;;;;;;0.60;0.60;;;17.50;99.90;;;;;;4988086;28;20050;-87
2023/09/02 08:42:43;;;;;;;0.55;0.55;;;17.40;99.90;;;;;;4988168;28;20066;-89
2023/09/02 08:45:09;;;;;;;0.60;0.60;;;17.40;99.90;;;;;;4988835;28;20050;-89
2023/09/02 08:47:39;;;;;;;0.70;0.70;;;17.40;99.90;;;;;;5005137;28;20077;-86
2023/09/02 08:50:09;;;;;;;0.60;0.60;;;17.50;99.90;;;;;;5003492;28;20053;-85
2023/09/02 08:52:36;;;;;;;0.60;0.60;;;17.30;99.90;;;;;;5004051;28;20072;-88
2023/09/02 08:55:03;;;;;;;0.60;0.60;;;17.30;99.90;;;;;;5004725;28;20038;-87
2023/09/02 08:57:29;;;;;;;0.60;0.60;;;17.50;99.90;;;;;;4990433;28;20041;-86
2023/09/02 08:59:55;;;;;;;0.60;0.60;;;17.40;99.90;;;;;;4987942;28;20057;-89
2023/09/02 09:02:21;;;;;;;0.60;0.60;;;17.60;99.90;;;;;;5004116;28;20052;-90
2023/09/02 09:04:48;;;;;;;0.60;0.60;;;17.50;99.90;;;;;;4986869;28;20061;-89
2023/09/02 09:07:21;;;;;;;0.60;0.60;;;17.30;99.90;;;;;;5006641;28;20115;-89
2023/09/02 09:09:47;;;;;;;0.60;0.60;;;17.40;99.90;;;;;;4990641;28;20443;-90
2023/09/02 09:12:15;;;;;;;0.60;0.60;;;17.50;99.90;;;;;;5005406;28;20072;-89
2023/09/02 09:14:46;;;;;;;0.60;0.60;;;17.80;99.90;;;;;;5004581;28;20073;-90
2023/09/02 09:17:14;;;;;;;0.60;0.60;;;17.50;99.90;;;;;;5007973;28;20042;-92
2023/09/02 09:19:40;;;;;;;0.60;0.60;;;17.80;99.90;;;;;;4989340;28;20061;-91
2023/09/02 09:22:06;;;;;;;0.60;0.60;;;17.60;99.90;;;;;;5003640;28;20092;-92
2023/09/02 09:24:34;;;;;;;0.60;0.60;;;17.50;99.90;;;;;;4990130;28;20047;-94
2023/09/02 09:27:05;;;;;;;0.60;0.60;;;17.80;99.90;;;;;;4990990;28;20046;-91
2023/09/02 09:29:40;;;;;;;0.60;0.60;;;17.80;99.90;;;;;;5006464;28;20077;-90
2023/09/02 09:32:11;;;;;;;0.60;0.60;;;17.90;99.90;;;;;;4989492;28;20037;-92
2023/09/02 09:34:39;;;;;;;0.60;0.60;;;17.80;99.90;;;;;;5005788;28;20128;-91
2023/09/02 09:37:06;;;;;;;0.60;0.60;;;18.00;99.90;;;;;;4987350;28;20053;-91
2023/09/02 09:39:47;;;;;;;0.60;0.60;;;17.80;99.90;;;;;;4987201;28;20053;-92
2023/09/02 09:42:17;;;;;;;0.60;0.60;;;18.00;99.90;;;;;;4991912;28;20053;-93
2023/09/02 09:44:57;;;;;;;0.60;0.60;;;18.00;99.90;;;;;;4988078;28;20046;-89
2023/09/02 09:47:24;;;;;;;0.60;0.60;;;18.00;99.90;;;;;;5003654;28;20049;-89
2023/09/02 09:49:50;;;;;;;0.60;0.60;;;17.80;99.90;;;;;;5003488;28;20049;-88
2023/09/02 09:52:21;;;;;;;0.60;0.60;;;18.00;99.90;;;;;;5005586;28;20069;-90
2023/09/02 09:54:53;;;;;;;0.60;0.60;;;18.10;99.90;;;;;;4986580;28;20065;-91
2023/09/02 09:57:35;;;;;;;0.60;0.60;;;17.90;99.90;;;;;;4983438;28;20111;-87
2023/09/02 10:00:01;;;;;;;0.70;0.70;;;18.20;99.90;;;;;;4983801;28;20077;-88
2023/09/02 10:02:26;;;;;;;0.60;0.60;;;18.10;99.90;;;;;;4986848;28;20052;-90
2023/09/02 10:04:57;;;;;;;0.70;0.70;;;18.00;99.90;;;;;;4987843;28;20041;-91
2023/09/02 10:07:25;;;;;;;0.65;0.65;;;18.50;99.90;;;;;;4985968;28;20132;-89
2023/09/02 10:09:55;;;;;;;0.63;0.63;;;18.50;99.90;;;;;;4989151;28;20079;-92
2023/09/02 10:12:21;;;;;;;0.60;0.60;;;18.40;99.90;;;;;;5004251;28;20778;-92
2023/09/02 10:14:48;;;;;;;0.60;0.60;;;18.50;99.90;;;;;;5000153;28;20688;-90
2023/09/02 10:17:15;;;;;;;0.68;0.68;;;18.50;99.90;;;;;;4983658;28;20066;-88
2023/09/02 10:19:42;;;;;;;0.60;0.60;;;18.60;99.90;;;;;;5003084;28;20157;-90
2023/09/02 10:22:08;;;;;;;0.60;0.60;;;18.80;99.90;;;;;;5000775;28;20080;-90
2023/09/02 10:24:40;;;;;;;0.60;0.60;;;19.00;99.90;;;;;;5001583;28;20108;-91
2023/09/02 10:27:14;;;;;;;0.60;0.60;;;19.00;99.90;;;;;;5002016;28;20073;-91
2023/09/02 10:29:43;;;;;;;0.60;0.60;;;19.20;99.90;;;;;;4980200;28;20061;-90
2023/09/02 10:32:15;;;;;;;0.60;0.60;;;19.30;99.90;;;;;;4998743;28;20042;-87
2023/09/02 10:35:01;;;;;;;0.60;0.60;;;19.10;99.90;;;;;;4999434;28;20054;-90
2023/09/02 10:37:34;;;;;;;0.60;0.60;;;19.00;99.90;;;;;;4987954;28;20060;-91
2023/09/02 10:40:05;;;;;;;0.50;0.50;;;18.90;99.90;;;;;;4985091;28;20759;-93
2023/09/02 10:42:31;;;;;;;0.60;0.60;;;18.90;99.90;;;;;;4989279;28;20042;-91
2023/09/02 10:44:57;;;;;;;0.52;0.52;;;19.00;99.90;;;;;;4992813;28;20037;-89
2023/09/02 10:47:23;;;;;;;0.55;0.55;;;19.20;99.90;;;;;;5007402;28;20044;-90
2023/09/02 10:49:50;;;;;;;0.50;0.50;;;19.20;99.90;;;;;;4990007;28;20053;-90
2023/09/02 10:52:16;;;;;;;0.60;0.60;;;19.10;99.90;;;;;;4991591;28;20047;-90
2023/09/02 10:55:01;;;;;;;0.60;0.60;;;19.00;99.90;;;;;;4992943;28;20049;-88
2023/09/02 10:57:33;;;;;;;0.63;0.63;;;18.90;99.90;;;;;;4988614;28;20046;-92
2023/09/02 11:00:22;;;;;;;0.52;0.52;;;18.80;99.90;;;;;;4987034;28;20139;-89
2023/09/02 11:02:52;;;;;;;0.60;0.60;;;19.00;99.90;;;;;;4986147;28;20041;-89
2023/09/02 11:05:18;;;;;;;0.57;0.57;;;18.90;99.90;;;;;;4993756;28;20080;-86
2023/09/02 11:07:44;;;;;;;0.60;0.60;;;18.90;99.90;;;;;;5007147;28;20128;-85
2023/09/02 11:10:11;;;;;;;0.60;0.60;;;18.90;99.90;;;;;;4986212;28;20046;-87
2023/09/02 11:13:06;;;;;;;0.60;0.60;;;18.90;99.90;;;;;;4987498;28;20104;-91
2023/09/02 11:15:36;;;;;;;0.60;0.60;;;18.90;99.90;;;;;;4987521;28;20049;-90
2023/09/02 11:18:32;;;;;;;0.60;0.60;;;19.10;99.90;;;;;;4985107;28;20049;-89
2023/09/02 11:20:58;;;;;;;0.60;0.60;;;19.20;99.90;;;;;;4986883;28;20188;-87
